Tiempo atmosférico en la estación meteorológica de Garrucha, Puerto, Almería (12 m.)



Fecha
DESCASC
Temp. máxima en grados centígrados (hora)
DESCASC
Temp. mínima en grados centígrados (hora)
DESCASC
Temp. media en grados centígrados
DESCASC
Racha de viento máxima en m/sg (hora)
DESCASC
Velocidad máxima media en intervalos de 10 minutos(hora)
DESCASC
Precipitaciones diarias en mm
DESCASC
Precipitaciones de 00:00 a 06:00 en mm
DESCASC
Precipitaciones de 06:00 a 12:00 en mm
DESCASC
Precipitaciones de 12:00 a 18:00 en mm
DESCASC
Precipitaciones de 18:00 a 24:00 en mm
DESCASC
29-10-2020 21.4 (11:10) 14 (07:00) 17.7 6.39 (06:20) 5 (06:20) 0 0 0 0 0
28-10-2020 20.4 (10:50) 11.9 (08:00) 16.1 8.33 (17:10) 7.22 (17:10) 0 0 0 0 0
27-10-2020 20.9 (10:40) 12.3 (00:00) 16.6 9.44 (17:50) 8.33 (17:30) 0 0 0 0 0
26-10-2020 21.1 (16:10) 14.9 (00:00) 18 16.67 (13:10) 11.11 (13:10) 0 0 0 0 0
25-10-2020 22.6 (17:30) 13.3 (00:00) 18 12.22 (15:20) 9.17 (14:00) 0 0 0 0 0
24-10-2020 21.3 (19:20) 14.5 (00:00) 17.9 10 (17:00) 9.17 (17:00) 0 0 0 0 0
23-10-2020 23.1 (16:20) 16.1 (00:00) 19.6 8.06 (05:50) 6.11 (05:50) 0 0 0 0 0
22-10-2020 24.3 (00:30) 19.4 (00:00) 21.8 11.11 (23:20) 6.94 (23:20) 0.2 0 0 0.2 0
21-10-2020 26.9 (12:20) 17.8 (00:00) 22.3 15.83 (13:00) 12.78 (14:30) 0 0 0 0 0
20-10-2020 21.9 (12:50) 14.2 (00:00) 18 6.11 (03:50) 5 (03:50) 0 0 0 0 0
19-10-2020 22.2 (12:50) 11.7 (00:00) 17 7.22 (04:20) 5.56 (08:00) 0 0 0 0 0
18-10-2020 21.5 (12:50) 12.4 (00:00) 16.9 5.83 (04:00) 5 (04:10) 0 0 0 0 0
17-10-2020 20.6 (12:20) 12.4 (00:00) 16.5 10.83 (15:20) 8.89 (15:20) 0 0 0 0 0
16-10-2020 21.2 (12:10) 12.3 (00:00) 16.8 8.89 (19:20) 7.78 (19:00) 0 0 0 0 0
15-10-2020 22.7 (12:10) 13.6 (00:00) 18.2 11.11 (17:40) 9.17 (17:30) 0 0 0 0 0
14-10-2020 22.3 (18:10) 15.4 (00:00) 18.8 9.72 (20:10) 7.22 (20:00) 0 0 0 0 0
13-10-2020 23.1 (19:20) 12 (00:00) 17.6 9.72 (18:00) 8.61 (18:10) 0 0 0 0 0
12-10-2020 20.6 (11:40) 12.8 (00:00) 16.7 8.06 (13:00) 6.67 (13:00) 0 0 0 0 0
11-10-2020 23.3 (10:40) 17.7 (00:00) 20.5 7.5 (14:50) 6.11 (15:00) 0 0 0 0 0
10-10-2020 23.4 (13:10) 17.2 (00:00) 20.3 4.72 (17:30) 3.89 (17:10) 0 0 0 0 0
09-10-2020 22.1 (11:40) 16.9 (00:00) 19.5 4.72 (04:30) 4.17 (16:00) 0 0 0 0 0
08-10-2020 24.4 (12:30) 17 (00:00) 20.7 6.11 (14:00) 5 (14:00) 0 0 0 0 0
07-10-2020 25.9 (11:20) 16.8 (00:00) 21.3 8.89 (15:40) 8.33 (15:40) 0 0 0 0 0
06-10-2020 21 (10:40) 14.3 (00:00) 17.7 12.5 (18:20) 10.28 (17:10) 0 0 0 0 0
05-10-2020 23.2 (12:00) 17.2 (00:00) 20.2 12.22 (16:10) 10.28 (16:20) 0 0 0 0 0
04-10-2020 23.9 (19:10) 13.1 (00:00) 18.5 12.78 (14:30) 10.83 (14:50) 0 0 0 0 0
03-10-2020 20.4 (12:40) 16.7 (00:00) 18.6 17.78 (06:40) 12.22 (06:40) 0 0 0 0 0
02-10-2020 28.4 (16:10) 19.6 (00:00) 24 16.67 (17:20) 11.67 (17:20) 0 0 0 0 0
01-10-2020 28.6 (19:20) 17.8 (00:00) 23.2 13.33 (16:10) 11.39 (15:50) 0 0 0 0 0

Gráficas

Temp. máximas Temp. mínimas Temp. medias Precipitaciones Rachas de viento máximas Velocidades máximas media en intervalos de 10 minutos

Datos horarios

Fecha y hora oficial Temperatura (ºC) Velocidad del viento (km/h) Dirección del viento Racha (km/h) Dirección de racha Precipitación (mm) Presión (hPa) Tendencia (hPa) Humedad (%)
2020-10-30 23:00:00 16.8 16 Oeste 21 Oeste 0 -- -- 61
2020-10-30 22:00:00 16.3 14 Oeste 19 Oeste 0 -- -- 63
2020-10-30 21:00:00 16.4 9 Oeste 14 Oeste 0 -- -- 72
2020-10-30 20:00:00 18.1 8 Oeste 12 Oeste 0 -- -- 77
2020-10-30 19:00:00 19 4 Noroeste 6 Noroeste 0 -- -- 77
2020-10-30 18:00:00 20 0 Calma 6 Nordeste 0 -- -- 75
2020-10-30 17:00:00 20.1 5 Este 8 Este 0 -- -- 74
2020-10-30 16:00:00 21.1 4 Este 9 Este 0 -- -- 71
2020-10-30 15:00:00 20.9 8 Este 9 Este 0 -- -- 69
2020-10-30 14:00:00 20.4 7 Sudeste 11 Sudeste 0 -- -- 72
2020-10-30 13:00:00 20.6 7 Sudeste 10 Este 0 -- -- 71
2020-10-30 12:00:00 20.9 8 Este 10 Este 0 -- -- 67
2020-10-30 11:00:00 21.3 6 Nordeste 11 Noroeste 0 -- -- 64
2020-10-30 10:00:00 18 8 Noroeste 16 Noroeste 0 -- -- 70
2020-10-30 09:00:00 15.2 11 Noroeste 18 Noroeste 0 -- -- 76
2020-10-30 08:00:00 13.3 14 Oeste 21 Noroeste 0 -- -- 81
2020-10-30 07:00:00 13.2 11 Noroeste 17 Oeste 0 -- -- 81
2020-10-30 06:00:00 13.2 13 Noroeste 18 Oeste 0 -- -- 79
2020-10-30 05:00:00 13.8 14 Noroeste 18 Oeste 0 -- -- 78
2020-10-30 04:00:00 13.9 13 Noroeste 21 Oeste 0 -- -- 78
2020-10-30 03:00:00 14.9 16 Oeste 21 Oeste 0 -- -- 74
2020-10-30 02:00:00 15.5 9 Oeste 16 Oeste 0 -- -- 75
2020-10-30 01:00:00 15.9 5 Oeste 13 Noroeste 0 -- -- 77
2020-10-30 00:00:00 15.6 10 Noroeste 14 Noroeste 0 -- -- 77
2020-10-29 23:00:00 15.3 10 Noroeste 13 Oeste 0 -- -- 83
2020-10-29 22:00:00 16.7 8 Oeste 12 Oeste 0 -- -- 84
2020-10-29 21:00:00 16.7 8 Oeste 11 Oeste 0 -- -- 85
2020-10-29 20:00:00 17.9 7 Oeste 10 Oeste 0 -- -- 84
2020-10-29 19:00:00 18.6 5 Noroeste 8 Nordeste 0 -- -- 83
2020-10-29 18:00:00 19.9 6 Nordeste 9 Nordeste 0 -- -- 78
2020-10-29 17:00:00 20.8 2 Este 4 Este 0 -- -- 78
2020-10-29 16:00:00 20.4 3 Este 6 Sudeste 0 -- -- 79
2020-10-29 15:00:00 20.6 6 Sudeste 13 Este 0 -- -- 79
2020-10-29 14:00:00 20.5 11 Este 13 Este 0 -- -- 79
2020-10-29 13:00:00 19.8 12 Este 13 Este 0 -- -- 79
2020-10-29 12:00:00 20.5 8 Este 11 Este 0 -- -- 75
2020-10-29 11:00:00 21.2 5 Nordeste 8 Nordeste 0 -- -- 61
2020-10-29 10:00:00 19.7 6 Noroeste 12 Noroeste 0 -- -- 55
2020-10-29 09:00:00 16.8 7 Oeste 17 Noroeste 0 -- -- 56
2020-10-29 08:00:00 15.1 8 Noroeste 15 Oeste 0 -- -- 59
2020-10-29 07:00:00 14 13 Noroeste 23 Oeste 0 -- -- 64
2020-10-29 06:00:00 14.9 16 Oeste 21 Oeste 0 -- -- 59
2020-10-29 05:00:00 15.7 11 Oeste 15 Oeste 0 -- -- 58
2020-10-29 04:00:00 15.9 12 Oeste 16 Oeste 0 -- -- 56
2020-10-29 03:00:00 16.3 7 Oeste 13 Oeste 0 -- -- 57
2020-10-29 02:00:00 16.2 8 Oeste 17 Oeste 0 -- -- 58
2020-10-29 01:00:00 16.2 5 Noroeste 14 Oeste 0 -- -- 60
2020-10-29 00:00:00 16.1 10 Noroeste 16 Oeste 0 -- -- 62
2020-10-28 23:00:00 16.7 8 Oeste 15 Oeste 0 -- -- 62
2020-10-28 22:00:00 15.9 10 Oeste 15 Oeste 0 -- -- 75
2020-10-28 21:00:00 16.5 7 Noroeste 12 Oeste 0 -- -- 78
2020-10-28 20:00:00 17.3 8 Oeste 14 Noroeste 0 -- -- 81
2020-10-28 19:00:00 17.7 10 Noroeste 23 Sur 0 -- -- 81
2020-10-28 18:00:00 18.7 19 Sur 30 Sur 0 -- -- 83
2020-10-28 17:00:00 18.7 24 Sudeste 29 Sur 0 -- -- 79
2020-10-28 16:00:00 18.6 22 Sudeste 26 Sudeste 0 -- -- 77
2020-10-28 15:00:00 18.6 22 Sudeste 25 Sudeste 0 -- -- 68
2020-10-28 14:00:00 18.3 19 Sudeste 21 Sudeste 0 -- -- 70
2020-10-28 13:00:00 18.4 16 Sudeste 19 Sudeste 0 -- -- 66
2020-10-28 12:00:00 18.6 12 Sudeste 14 Sudeste 0 -- -- 57
2020-10-28 11:00:00 20.4 4 Este 10 Noroeste 0 -- -- 48
2020-10-28 10:00:00 17.1 7 Noroeste 14 Oeste 0 -- -- 51
2020-10-28 09:00:00 14.7 10 Oeste 21 Oeste 0 -- -- 56
2020-10-28 08:00:00 11.9 14 Noroeste 23 Oeste 0 -- -- 64
2020-10-28 07:00:00 12.6 15 Oeste 20 Oeste 0 -- -- 61
2020-10-28 06:00:00 12.7 5 Noroeste 18 Oeste 0 -- -- 62
2020-10-28 05:00:00 12.8 12 Noroeste 17 Noroeste 0 -- -- 63
2020-10-28 04:00:00 13.3 11 Oeste 15 Oeste 0 -- -- 64
2020-10-28 03:00:00 13 8 Oeste 12 Oeste 0 -- -- 71
2020-10-28 02:00:00 13.1 9 Oeste 14 Oeste 0 -- -- 75
2020-10-28 01:00:00 13.9 9 Oeste 23 Sudoeste 0 -- -- 69
2020-10-28 00:00:00 14.2 8 Oeste 13 Oeste 0 -- -- 69
2020-10-27 23:00:00 15.7 6 Oeste 14 Oeste 0 -- -- 67
2020-10-27 22:00:00 15.6 10 Oeste 14 Oeste 0 -- -- 73
2020-10-27 21:00:00 16.2 6 Noroeste 12 Oeste 0 -- -- 75
2020-10-27 20:00:00 16.8 10 Noroeste 18 Oeste 0 -- -- 77
2020-10-27 19:00:00 17.5 10 Oeste 32 Sur 0 -- -- 73
2020-10-27 18:00:00 18.1 28 Sur 34 Sur 0 -- -- 78
2020-10-27 17:00:00 17.8 28 Sudeste 32 Sudeste 0 -- -- 74
2020-10-27 16:00:00 17.8 27 Sudeste 33 Sudeste 0 -- -- 75
2020-10-27 15:00:00 17.6 28 Sudeste 32 Sudeste 0 -- -- 70
2020-10-27 14:00:00 17.7 27 Sudeste 31 Sudeste 0 -- -- 69
2020-10-27 13:00:00 17.9 24 Sudeste 27 Sudeste 0 -- -- 68
2020-10-27 12:00:00 18.4 12 Sudeste 14 Sudeste 0 -- -- 60
2020-10-27 11:00:00 20.4 3 Sudeste 12 Noroeste 0 -- -- 47
2020-10-27 10:00:00 17 8 Noroeste 12 Noroeste 0 -- -- 46
2020-10-27 09:00:00 13.9 4 Noroeste 21 Oeste 0 -- -- 51
2020-10-27 08:00:00 12.4 13 Noroeste 17 Oeste 0 -- -- 55
2020-10-27 07:00:00 12.4 13 Noroeste 19 Oeste 0 -- -- 58
2020-10-27 06:00:00 12.7 9 Oeste 16 Oeste 0 -- -- 52
2020-10-27 05:00:00 13.5 9 Oeste 14 Oeste 0 -- -- 52
2020-10-27 04:00:00 13.3 8 Noroeste 16 Oeste 0 -- -- 50
2020-10-27 03:00:00 13.7 11 Oeste 21 Oeste 0 -- -- 51
2020-10-27 02:00:00 15.2 17 Oeste 22 Oeste 0 -- -- 49
2020-10-27 01:00:00 14.4 10 Oeste 18 Noroeste 0 -- -- 52
2020-10-27 00:00:00 14.9 13 Oeste 18 Oeste 0 -- -- 47
2020-10-26 23:00:00 16.3 7 Oeste 19 Noroeste 0 -- -- 46
2020-10-26 22:00:00 17.3 12 Oeste 34 Noroeste 0 -- -- 42
2020-10-26 21:00:00 18.3 18 Noroeste 43 Noroeste 0 -- -- 40
2020-10-26 20:00:00 18.6 23 Noroeste 47 Noroeste 0 -- -- 39
2020-10-26 19:00:00 19.1 22 Noroeste 34 Noroeste 0 -- -- 35
2020-10-26 18:00:00 20 19 Oeste 35 Noroeste 0 -- -- 34
2020-10-26 17:00:00 21 23 Noroeste 45 Oeste 0 -- -- 31
2020-10-26 16:00:00 21 32 Noroeste 50 Noroeste 0 -- -- 31
2020-10-26 15:00:00 20.8 31 Noroeste 59 Noroeste 0 -- -- 31
2020-10-26 14:00:00 20.7 32 Noroeste 60 Noroeste 0 -- -- 33
2020-10-26 13:00:00 20.4 36 Noroeste 57 Noroeste 0 -- -- 35
2020-10-26 12:00:00 20.4 31 Noroeste 51 Noroeste 0 -- -- 37
2020-10-26 11:00:00 20.3 30 Noroeste 44 Noroeste 0 -- -- 37
2020-10-26 10:00:00 18.1 21 Noroeste 43 Noroeste 0 -- -- 47
2020-10-26 09:00:00 18.3 25 Noroeste 52 Noroeste 0 -- -- 47
2020-10-26 08:00:00 18.5 24 Noroeste 57 Noroeste 0 -- -- 50
2020-10-26 07:00:00 18.6 26 Noroeste 49 Noroeste 0 -- -- 52
2020-10-26 06:00:00 18.5 25 Noroeste 50 Noroeste 0 -- -- 56
2020-10-26 05:00:00 17.6 4 Oeste 28 Sudoeste 0 -- -- 64
2020-10-26 04:00:00 17.1 18 Sudoeste 25 Sudoeste 0 -- -- 70
2020-10-26 03:00:00 17.8 9 Sudoeste 26 Oeste 0 -- -- 64
2020-10-26 02:00:00 18.4 10 Sur 24 Sudoeste 0 -- -- 71
2020-10-26 01:00:00 18.3 16 Sudoeste 22 Sudoeste 0 -- -- 58
2020-10-26 00:00:00 18.3 11 Sudoeste 21 Sudoeste 0 -- -- 62
2020-10-25 23:00:00 18.7 11 Oeste 17 Oeste 0 -- -- 61
2020-10-25 22:00:00 18.6 8 Oeste 16 Oeste 0 -- -- 68
2020-10-25 21:00:00 19.8 12 Oeste 26 Sudoeste 0 -- -- 62
2020-10-25 20:00:00 20.4 24 Sudoeste 38 Sudoeste 0 -- -- 61
2020-10-25 19:00:00 20.9 22 Sudoeste 33 Sudoeste 0 -- -- 56
2020-10-25 18:00:00 22.3 17 Sudoeste 29 Oeste 0 -- -- 50
2020-10-25 17:00:00 21.2 21 Sur 37 Sudeste 0 -- -- 67
2020-10-25 16:00:00 21.1 26 Sudeste 44 Sudeste 0 -- -- 70
2020-10-25 15:00:00 21.8 19 Sudeste 39 Sur 0 -- -- 62
2020-10-25 14:00:00 21 33 Sur 41 Sur 0 -- -- 67
2020-10-25 13:00:00 21.7 3 Sudeste 13 Sudeste 0 -- -- 64
2020-10-25 12:00:00 19.8 11 Sudeste 14 Sudeste 0 -- -- 68
2020-10-25 11:00:00 18.1 14 Sur 17 Sur 0 -- -- 69
2020-10-25 10:00:00 18.6 2 Noroeste 10 Oeste 0 -- -- 60
2020-10-25 09:00:00 14.3 8 Noroeste 17 Oeste 0 -- -- 71
2020-10-25 08:00:00 14.1 10 Oeste 17 Sudoeste 0 -- -- 68
2020-10-25 07:00:00 14 8 Oeste 22 Sudoeste 0 -- -- 72
2020-10-25 06:00:00 14.7 12 Oeste 19 Oeste 0 -- -- 71
2020-10-25 05:00:00 13.3 3 Noroeste 18 Oeste 0 -- -- 76
2020-10-25 04:00:00 14.8 11 Oeste 17 Sudoeste 0 -- -- 74
2020-10-25 03:00:00 15.9 5 Noroeste 13 Sudoeste 0 -- -- 74
2020-10-25 02:00:00 16.1 13 Sudoeste 17 Sudoeste 0 -- -- 73
2020-10-25 01:00:00 16.9 7 Oeste 15 Oeste 0 -- -- 70
2020-10-25 00:00:00 17.3 9 Oeste 21 Oeste 0 -- -- 69
2020-10-24 23:00:00 17.5 5 Sudoeste 12 Oeste 0 -- -- 71
2020-10-24 22:00:00 17.5 9 Oeste 12 Oeste 0 -- -- 75
2020-10-24 21:00:00 19.6 4 Noroeste 13 Noroeste 0 -- -- 61
2020-10-24 20:00:00 20.3 0 Calma 14 Oeste 0 -- -- 56
2020-10-24 19:00:00 20.6 15 Sur 31 Sudeste 0 -- -- 63
2020-10-24 18:00:00 19.5 23 Sudeste 36 Sur 0 -- -- 82
2020-10-24 17:00:00 19.2 33 Sur 36 Sur 0 -- -- 76
2020-10-24 16:00:00 19.4 26 Sudeste 29 Sudeste 0 -- -- 71
2020-10-24 15:00:00 19.6 22 Sudeste 24 Sudeste 0 -- -- 68
2020-10-24 14:00:00 19.6 17 Sudeste 19 Sudeste 0 -- -- 68
2020-10-24 13:00:00 19.5 14 Sudeste 18 Sudeste 0 -- -- 64
2020-10-24 12:00:00 20.5 7 Este 9 Este 0 -- -- 56
2020-10-24 11:00:00 18.8 5 Este 10 Oeste 0 -- -- 59
2020-10-24 10:00:00 17.6 3 Noroeste 12 Oeste 0 -- -- 58
2020-10-24 09:00:00 15.2 2 Sur 7 Sur 0 -- -- 67
2020-10-24 08:00:00 14.7 5 Noroeste 11 Oeste 0 -- -- 66
2020-10-24 07:00:00 15.4 10 Oeste 18 Oeste 0 -- -- 63
2020-10-24 06:00:00 15.6 13 Oeste 20 Oeste 0 -- -- 64
2020-10-24 05:00:00 15.6 10 Oeste 14 Oeste 0 -- -- 66
2020-10-24 04:00:00 16.3 10 Oeste 14 Oeste 0 -- -- 66
2020-10-24 03:00:00 16.8 7 Oeste 11 Oeste 0 -- -- 64
2020-10-24 02:00:00 17.2 8 Oeste 15 Sudoeste 0 -- -- 64
2020-10-24 01:00:00 17.9 8 Noroeste 15 Oeste 0 -- -- 65
2020-10-24 00:00:00 18.6 11 Oeste 19 Oeste 0 -- -- 63
2020-10-23 23:00:00 19.1 6 Oeste 18 Oeste 0 -- -- 62
2020-10-23 22:00:00 20 13 Oeste 22 Oeste 0 -- -- 61
2020-10-23 21:00:00 20.6 14 Oeste 22 Oeste 0 -- -- 60
2020-10-23 20:00:00 21.6 18 Oeste 26 Sudoeste 0 -- -- 56
2020-10-23 19:00:00 21 14 Sur 23 Sur 0 -- -- 71
2020-10-23 18:00:00 21.6 17 Sudeste 22 Sudeste 0 -- -- 68
2020-10-23 17:00:00 22.8 8 Sudeste 14 Sudeste 0 -- -- 51
2020-10-23 16:00:00 22.8 9 Sudeste 15 Este 0 -- -- 54
2020-10-23 15:00:00 20.9 9 Sudeste 19 Este 0 -- -- 74
2020-10-23 14:00:00 20.1 17 Sudeste 19 Sudeste 0 -- -- 76
2020-10-23 13:00:00 19.4 13 Sudeste 21 Sur 0 -- -- 81
2020-10-23 12:00:00 19.9 12 Sur 19 Sudoeste 0 -- -- 77
2020-10-23 11:00:00 18.4 15 Sudoeste 19 Sudoeste 0 -- -- 71
2020-10-23 10:00:00 17.2 6 Oeste 20 Oeste 0 -- -- 75
2020-10-23 09:00:00 16.5 15 Oeste 20 Oeste 0 -- -- 79
2020-10-23 08:00:00 16.2 10 Oeste 26 Sudoeste 0 -- -- 81
2020-10-23 07:00:00 17.3 11 Oeste 17 Oeste 0 -- -- 79
2020-10-23 06:00:00 18 18 Oeste 29 Sudoeste 0 -- -- 77
2020-10-23 05:00:00 17.8 8 Oeste 14 Oeste 0 -- -- 79
2020-10-23 04:00:00 18.7 7 Noroeste 19 Oeste 0 -- -- 76
2020-10-23 03:00:00 19.6 7 Oeste 14 Sudoeste 0 -- -- 73
2020-10-23 02:00:00 19.5 5 Oeste 20 Sudoeste 0 -- -- 75
2020-10-23 01:00:00 19.8 17 Sudoeste 28 Sudoeste 0 -- -- 74
2020-10-23 00:00:00 19.8 18 Oeste 40 Sudoeste 0 -- -- 73
2020-10-22 23:00:00 20 15 Sur 26 Sur 0 -- -- 73
2020-10-22 22:00:00 19.6 3 Nordeste 10 Noroeste 0 -- -- 77
2020-10-22 21:00:00 20 4 Nordeste 27 Sur 0 -- -- 76
2020-10-22 20:00:00 20.1 14 Sur 28 Sur 0 -- -- 75
2020-10-22 19:00:00 20.4 17 Sudeste 29 Sur 0 -- -- 76
2020-10-22 18:00:00 20.1 20 Sudeste 25 Sur 0 -- -- 86
2020-10-22 17:00:00 21.1 13 Sur 24 Sur 0 -- -- 72
2020-10-22 16:00:00 21.2 9 Oeste 23 Sudoeste 0 -- -- 72
2020-10-22 15:00:00 20.7 17 Sudoeste 23 Sudoeste 0 -- -- 76
2020-10-22 14:00:00 20.3 11 Noroeste 22 Noroeste 0.2 -- -- 80
2020-10-22 13:00:00 20.8 10 Noroeste 17 Noroeste 0 -- -- 77
2020-10-22 12:00:00 21.1 6 Noroeste 10 Noroeste 0 -- -- 69
2020-10-22 11:00:00 20.7 6 Noroeste 10 Oeste 0 -- -- 73
2020-10-22 10:00:00 19.9 6 Oeste 9 Oeste 0 -- -- 75
2020-10-22 09:00:00 20.3 5 Noroeste 14 Nordeste 0 -- -- 79
2020-10-22 08:00:00 20.4 9 Norte 16 Noroeste 0 -- -- 80
2020-10-22 07:00:00 20.1 10 Sur 19 Sudeste 0 -- -- 87
2020-10-22 06:00:00 21 21 Sudeste 32 Sur 0 -- -- 78
2020-10-22 05:00:00 22.2 10 Noroeste 27 Sudoeste 0 -- -- 53
2020-10-22 04:00:00 23.7 20 Sudoeste 29 Sudoeste 0 -- -- 53
2020-10-22 03:00:00 22.5 4 Sur 23 Sudoeste 0 -- -- 61
2020-10-22 02:00:00 23.8 13 Sudoeste 19 Sudoeste 0 -- -- 50
2020-10-22 01:00:00 24.1 9 Sudoeste 21 Oeste 0 -- -- 48
2020-10-22 00:00:00 23 5 Sur 13 Sudeste 0 -- -- 56
2020-10-21 23:00:00 24 6 Sur 34 Sudoeste 0 -- -- 51
2020-10-21 22:00:00 25.4 24 Oeste 42 Oeste 0 -- -- 38
2020-10-21 21:00:00 25 21 Sudoeste 36 Sudoeste 0 -- -- 39
2020-10-21 20:00:00 25 17 Sudoeste 42 Sur 0 -- -- 42
2020-10-21 19:00:00 23.3 35 Sur 53 Sur 0 -- -- 59
2020-10-21 18:00:00 22.5 40 Sur 51 Sur 0 -- -- 68
2020-10-21 17:00:00 22.1 40 Sur 54 Sur 0 -- -- 73
2020-10-21 16:00:00 21.9 39 Sur 50 Sur 0 -- -- 75
2020-10-21 15:00:00 22.7 44 Sur 54 Sur 0 -- -- 69
2020-10-21 14:00:00 22.7 44 Sur 54 Sur 0 -- -- 67
2020-10-21 13:00:00 26.5 39 Sur 57 Sur 0 -- -- 41
2020-10-21 12:00:00 26.4 36 Sudoeste 50 Sudoeste 0 -- -- 46
2020-10-21 11:00:00 21.9 14 Sudeste 25 Sur 0 -- -- 71
2020-10-21 10:00:00 20.5 18 Sur 43 Sur 0 -- -- 81
2020-10-21 09:00:00 20.1 22 Sur 37 Sur 0 -- -- 82
2020-10-21 08:00:00 20.2 19 Sur 35 Sur 0 -- -- 77
2020-10-21 07:00:00 20.5 11 Sudoeste 23 Sur 0 -- -- 78
2020-10-21 06:00:00 18.9 4 Nordeste 16 Oeste 0 -- -- 78
2020-10-21 05:00:00 18.5 11 Oeste 15 Noroeste 0 -- -- 80
2020-10-21 04:00:00 18 8 Noroeste 11 Noroeste 0 -- -- 81
2020-10-21 03:00:00 18.3 3 Sur 16 Noroeste 0 -- -- 79
2020-10-21 02:00:00 17.8 10 Noroeste 14 Oeste 0 -- -- 82
2020-10-21 01:00:00 18.6 10 Noroeste 15 Oeste 0 -- -- 80
2020-10-21 00:00:00 18.6 11 Noroeste 19 Noroeste 0 -- -- 81
2020-10-20 23:00:00 18.1 13 Noroeste 19 Noroeste 0 -- -- 81
2020-10-20 22:00:00 19.3 11 Oeste 16 Oeste 0 -- -- 79
2020-10-20 21:00:00 19.4 5 Noroeste 10 Noroeste 0 -- -- 79
2020-10-20 20:00:00 19.8 2 Noroeste 9 Noroeste 0 -- -- 83
2020-10-20 19:00:00 20.3 3 Norte 6 Noroeste 0 -- -- 83
2020-10-20 18:00:00 21.4 0 Calma 9 Este 0 -- -- 80
2020-10-20 17:00:00 20.7 6 Este 16 Este 0 -- -- 81
2020-10-20 16:00:00 21.2 14 Este 16 Este 0 -- -- 77
2020-10-20 15:00:00 21.6 6 Nordeste 9 Nordeste 0 -- -- 72
2020-10-20 14:00:00 21.6 3 Nordeste 6 Este 0 -- -- 70
2020-10-20 13:00:00 21.9 2 Nordeste 7 Nordeste 0 -- -- 66
2020-10-20 12:00:00 20.6 5 Nordeste 13 Noroeste 0 -- -- 66
2020-10-20 11:00:00 18.2 9 Noroeste 15 Noroeste 0 -- -- 68
2020-10-20 10:00:00 17 9 Noroeste 15 Noroeste 0 -- -- 75
2020-10-20 09:00:00 15.6 11 Noroeste 17 Noroeste 0 -- -- 72
2020-10-20 08:00:00 14.3 9 Noroeste 17 Oeste 0 -- -- 73
2020-10-20 07:00:00 14.5 11 Noroeste 15 Noroeste 0 -- -- 75
2020-10-20 06:00:00 14.8 14 Noroeste 20 Oeste 0 -- -- 74
2020-10-20 05:00:00 14.8 16 Oeste 21 Oeste 0 -- -- 74
2020-10-20 04:00:00 14.8 17 Oeste 22 Oeste 0 -- -- 72
2020-10-20 03:00:00 15.2 12 Noroeste 18 Oeste 0 -- -- 74
2020-10-20 02:00:00 15.9 13 Noroeste 18 Oeste 0 -- -- 77
2020-10-20 01:00:00 16.2 14 Noroeste 17 Oeste 0 -- -- 78
2020-10-20 00:00:00 16.9 11 Oeste 17 Oeste 0 -- -- 82
2020-10-19 23:00:00 16.8 14 Oeste 17 Oeste 0 -- -- 85
2020-10-19 22:00:00 17.5 12 Oeste 17 Oeste 0 -- -- 87
2020-10-19 21:00:00 18.3 8 Noroeste 10 Noroeste 0 -- -- 88
2020-10-19 20:00:00 19.7 6 Nordeste 8 Nordeste 0 -- -- 87
2020-10-19 19:00:00 20.2 6 Este 12 Este 0 -- -- 83
2020-10-19 18:00:00 20.5 10 Este 14 Este 0 -- -- 81
2020-10-19 17:00:00 20.9 11 Nordeste 14 Nordeste 0 -- -- 77
2020-10-19 16:00:00 20.9 11 Nordeste 17 Nordeste 0 -- -- 76
2020-10-19 15:00:00 20.9 13 Nordeste 19 Nordeste 0 -- -- 75
2020-10-19 14:00:00 21.2 13 Nordeste 17 Nordeste 0 -- -- 73
2020-10-19 13:00:00 22.1 8 Nordeste 12 Nordeste 0 -- -- 66
2020-10-19 12:00:00 20 6 Noroeste 15 Noroeste 0 -- -- 59
2020-10-19 11:00:00 16.9 10 Noroeste 18 Noroeste 0 -- -- 55
2020-10-19 10:00:00 14.2 15 Noroeste 21 Noroeste 0 -- -- 60
2020-10-19 09:00:00 12.9 16 Noroeste 24 Oeste 0 -- -- 57
2020-10-19 08:00:00 12.1 20 Noroeste 23 Oeste 0 -- -- 60
2020-10-19 07:00:00 12.2 15 Noroeste 20 Noroeste 0 -- -- 60
2020-10-19 06:00:00 12.4 18 Noroeste 22 Oeste 0 -- -- 60
2020-10-19 05:00:00 12.6 19 Oeste 26 Oeste 0 -- -- 59
2020-10-19 04:00:00 13.8 17 Oeste 21 Oeste 0 -- -- 57
2020-10-19 03:00:00 14.3 15 Oeste 19 Oeste 0 -- -- 57
2020-10-19 02:00:00 14.8 14 Oeste 19 Oeste 0 -- -- 59
2020-10-19 01:00:00 15.1 14 Oeste 19 Oeste 0 -- -- 62
2020-10-19 00:00:00 15.9 14 Oeste 19 Oeste 0 -- -- 67
2020-10-18 23:00:00 15.8 12 Oeste 20 Oeste 0 -- -- 72
2020-10-18 22:00:00 16.4 9 Oeste 10 Oeste 0 -- -- 83
2020-10-18 21:00:00 18.3 5 Noroeste 8 Norte 0 -- -- 79
2020-10-18 20:00:00 19.3 5 Nordeste 9 Nordeste 0 -- -- 78
2020-10-18 19:00:00 20.6 4 Nordeste 10 Nordeste 0 -- -- 74
2020-10-18 18:00:00 20.6 5 Nordeste 12 Este 0 -- -- 75
2020-10-18 17:00:00 20.4 10 Este 13 Este 0 -- -- 75
2020-10-18 16:00:00 19.8 11 Este 18 Este 0 -- -- 76
2020-10-18 15:00:00 19.6 15 Este 18 Este 0 -- -- 78
2020-10-18 14:00:00 20.5 13 Nordeste 17 Este 0 -- -- 77
2020-10-18 13:00:00 21.4 12 Nordeste 16 Nordeste 0 -- -- 73
2020-10-18 12:00:00 20.2 5 Nordeste 13 Noroeste 0 -- -- 69
2020-10-18 11:00:00 18.1 9 Noroeste 17 Noroeste 0 -- -- 54
2020-10-18 10:00:00 15 15 Noroeste 21 Oeste 0 -- -- 62
2020-10-18 09:00:00 12.9 18 Oeste 21 Oeste 0 -- -- 68
2020-10-18 08:00:00 12.8 16 Oeste 21 Oeste 0 -- -- 69
2020-10-18 07:00:00 12.8 15 Noroeste 21 Oeste 0 -- -- 69
2020-10-18 06:00:00 13.8 13 Oeste 21 Oeste 0 -- -- 68
2020-10-18 05:00:00 14.3 16 Oeste 21 Oeste 0 -- -- 67
2020-10-18 04:00:00 14.6 17 Oeste 21 Oeste 0 -- -- 67
2020-10-18 03:00:00 14.6 8 Noroeste 15 Oeste 0 -- -- 72
2020-10-18 02:00:00 15 12 Oeste 15 Oeste 0 -- -- 72
2020-10-18 01:00:00 15.6 10 Oeste 18 Oeste 0 -- -- 76
2020-10-18 00:00:00 16.4 10 Oeste 19 Noroeste 0 -- -- 75
2020-10-17 23:00:00 16.9 13 Oeste 19 Oeste 0 -- -- 74
2020-10-17 22:00:00 17.7 13 Oeste 19 Oeste 0 -- -- 77
2020-10-17 21:00:00 18.4 8 Sudoeste 16 Oeste 0 -- -- 76
2020-10-17 20:00:00 19.3 11 Sudoeste 30 Sudeste 0 -- -- 73
2020-10-17 19:00:00 19.9 25 Sudeste 31 Sudeste 0 -- -- 79
2020-10-17 18:00:00 19.8 26 Sudeste 33 Sudeste 0 -- -- 77
2020-10-17 17:00:00 19.3 29 Sudeste 35 Sudeste 0 -- -- 75
2020-10-17 16:00:00 18.6 31 Sudeste 39 Sudeste 0 -- -- 73
2020-10-17 15:00:00 18.9 30 Sudeste 33 Sudeste 0 -- -- 80
2020-10-17 14:00:00 19 24 Sudeste 28 Sudeste 0 -- -- 81
2020-10-17 13:00:00 18.8 16 Sudeste 19 Sudeste 0 -- -- 74
2020-10-17 12:00:00 19.8 4 Este 7 Nordeste 0 -- -- 55
2020-10-17 11:00:00 17.4 5 Noroeste 14 Noroeste 0 -- -- 56
2020-10-17 10:00:00 14.8 11 Noroeste 20 Oeste 0 -- -- 59
2020-10-17 09:00:00 12.4 18 Oeste 23 Noroeste 0 -- -- 70
2020-10-17 08:00:00 12.7 15 Oeste 21 Oeste 0 -- -- 76
2020-10-17 07:00:00 12.9 14 Oeste 21 Oeste 0 -- -- 78
2020-10-17 06:00:00 13.3 16 Oeste 20 Oeste 0 -- -- 81
2020-10-17 05:00:00 14.2 14 Oeste 20 Oeste 0 -- -- 81
2020-10-17 04:00:00 14.6 12 Noroeste 18 Oeste 0 -- -- 82
2020-10-17 03:00:00 15.3 13 Oeste 18 Oeste 0 -- -- 79
2020-10-17 02:00:00 15.5 12 Oeste 16 Oeste 0 -- -- 81
2020-10-17 01:00:00 15.3 12 Oeste 17 Oeste 0 -- -- 79
2020-10-17 00:00:00 16.5 11 Oeste 20 Oeste 0 -- -- 79
2020-10-16 23:00:00 16.6 12 Oeste 15 Oeste 0 -- -- 78
2020-10-16 22:00:00 18.3 5 Sur 17 Sur 0 -- -- 78
2020-10-16 21:00:00 19 15 Sur 29 Sudeste 0 -- -- 79
2020-10-16 20:00:00 19.2 25 Sudeste 32 Sur 0 -- -- 78
2020-10-16 19:00:00 19.1 28 Sur 31 Sur 0 -- -- 75
2020-10-16 18:00:00 19.2 25 Sudeste 31 Sudeste 0 -- -- 72
2020-10-16 17:00:00 19.3 24 Sudeste 30 Sudeste 0 -- -- 67
2020-10-16 16:00:00 19.7 21 Sudeste 26 Este 0 -- -- 57
2020-10-16 15:00:00 19.6 22 Este 27 Este 0 -- -- 53
2020-10-16 14:00:00 19.6 20 Sudeste 23 Sudeste 0 -- -- 62
2020-10-16 13:00:00 19.9 9 Sudeste 12 Sudeste 0 -- -- 54
2020-10-16 12:00:00 20.4 3 Este 8 Noroeste 0 -- -- 49
2020-10-16 11:00:00 17.9 7 Noroeste 16 Oeste 0 -- -- 48
2020-10-16 10:00:00 15 10 Oeste 19 Oeste 0 -- -- 56
2020-10-16 09:00:00 13.4 12 Oeste 17 Oeste 0 -- -- 63
2020-10-16 08:00:00 13.1 14 Noroeste 22 Oeste 0 -- -- 66
2020-10-16 07:00:00 13.6 15 Oeste 21 Oeste 0 -- -- 65
2020-10-16 06:00:00 13.9 10 Noroeste 16 Oeste 0 -- -- 75
2020-10-16 05:00:00 14 13 Noroeste 15 Oeste 0 -- -- 83
2020-10-16 04:00:00 14.7 9 Noroeste 17 Oeste 0 -- -- 85
2020-10-16 03:00:00 15.6 13 Oeste 19 Oeste 0 -- -- 81
2020-10-16 02:00:00 16.5 14 Oeste 18 Oeste 0 -- -- 80
2020-10-16 01:00:00 16.6 12 Oeste 18 Oeste 0 -- -- 79
2020-10-16 00:00:00 16.4 14 Oeste 22 Oeste 0 -- -- 83
2020-10-15 23:00:00 16.2 13 Oeste 16 Oeste 0 -- -- 84
2020-10-15 22:00:00 17.6 6 Noroeste 12 Noroeste 0 -- -- 85
2020-10-15 21:00:00 18.8 4 Sudeste 25 Sudeste 0 -- -- 77
2020-10-15 20:00:00 18.8 21 Sudeste 37 Sur 0 -- -- 87
2020-10-15 19:00:00 19.1 29 Sur 40 Sur 0 -- -- 87
2020-10-15 18:00:00 19.4 32 Sur 40 Sur 0 -- -- 81
2020-10-15 17:00:00 19.3 29 Sudeste 33 Sudeste 0 -- -- 76
2020-10-15 16:00:00 19.4 21 Sudeste 29 Sudeste 0 -- -- 74
2020-10-15 15:00:00 19.5 23 Sudeste 28 Sudeste 0 -- -- 67
2020-10-15 14:00:00 20.1 20 Sudeste 23 Sudeste 0 -- -- 64
2020-10-15 13:00:00 20.2 16 Este 21 Nordeste 0 -- -- 53
2020-10-15 12:00:00 21.6 7 Nordeste 13 Norte 0 -- -- 48
2020-10-15 11:00:00 19 8 Norte 14 Nordeste 0 -- -- 44
2020-10-15 10:00:00 17.4 10 Noroeste 19 Oeste 0 -- -- 51
2020-10-15 09:00:00 14.2 15 Noroeste 20 Oeste 0 -- -- 62
2020-10-15 08:00:00 14.3 13 Noroeste 18 Oeste 0 -- -- 67
2020-10-15 07:00:00 14 12 Oeste 21 Oeste 0 -- -- 82
2020-10-15 06:00:00 15.4 11 Oeste 17 Oeste 0 -- -- 91
2020-10-15 05:00:00 15.3 10 Oeste 15 Oeste 0 -- -- 92
2020-10-15 04:00:00 16.3 9 Oeste 14 Noroeste 0 -- -- 91
2020-10-15 03:00:00 16.2 9 Noroeste 12 Noroeste 0 -- -- 88
2020-10-15 02:00:00 17 4 Noroeste 11 Nordeste 0 -- -- 87
2020-10-15 01:00:00 18.7 9 Nordeste 14 Nordeste 0 -- -- 89
2020-10-15 00:00:00 18.9 11 Nordeste 24 Nordeste 0 -- -- 90
2020-10-14 23:00:00 19 15 Nordeste 25 Nordeste 0 -- -- 91
2020-10-14 22:00:00 19.2 19 Nordeste 31 Nordeste 0 -- -- 92
2020-10-14 21:00:00 19.5 22 Nordeste 35 Nordeste 0 -- -- 91
2020-10-14 20:00:00 20 26 Nordeste 34 Nordeste 0 -- -- 88
2020-10-14 19:00:00 21.1 16 Nordeste 27 Nordeste 0 -- -- 81
2020-10-14 18:00:00 21.8 9 Nordeste 18 Sudeste 0 -- -- 77
2020-10-14 17:00:00 20.8 15 Sudeste 25 Este 0 -- -- 77
2020-10-14 16:00:00 21.6 19 Nordeste 24 Nordeste 0 -- -- 76
2020-10-14 15:00:00 21.6 19 Sudeste 23 Sudeste 0 -- -- 75
2020-10-14 14:00:00 20.3 17 Sudeste 27 Sur 0 -- -- 84
2020-10-14 13:00:00 19.7 21 Sudeste 25 Sudeste 0 -- -- 83
2020-10-14 12:00:00 19.6 13 Sudeste 15 Sur 0 -- -- 78
2020-10-14 11:00:00 21 5 Norte 12 Este 0 -- -- 67
2020-10-14 10:00:00 20.2 2 Sudoeste 18 Sudoeste 0 -- -- 61
2020-10-14 09:00:00 18.5 4 Sur 8 Oeste 0 -- -- 56
2020-10-14 08:00:00 16.6 6 Sudoeste 16 Sudoeste 0 -- -- 63
2020-10-14 07:00:00 16.9 6 Oeste 14 Oeste 0 -- -- 57
2020-10-14 06:00:00 15.6 3 Noroeste 12 Oeste 0 -- -- 60
2020-10-14 05:00:00 17.4 11 Oeste 17 Noroeste 0 -- -- 53
2020-10-14 04:00:00 16.4 2 Norte 12 Oeste 0 -- -- 57
2020-10-14 03:00:00 17.7 2 Oeste 8 Oeste 0 -- -- 54
2020-10-14 02:00:00 18.3 3 Oeste 10 Oeste 0 -- -- 51
2020-10-14 01:00:00 18.4 8 Oeste 18 Oeste 0 -- -- 55
2020-10-14 00:00:00 20.1 12 Oeste 24 Oeste 0 -- -- 42
2020-10-13 23:00:00 21.6 12 Oeste 20 Oeste 0 -- -- 42
2020-10-13 22:00:00 21.3 13 Sudoeste 22 Sudoeste 0 -- -- 47
2020-10-13 21:00:00 21.4 4 Sudoeste 10 Oeste 0 -- -- 46
2020-10-13 20:00:00 22.4 2 Noroeste 17 Sur 0 -- -- 48
2020-10-13 19:00:00 21.8 19 Sur 35 Sudeste 0 -- -- 66
2020-10-13 18:00:00 21.3 30 Sudeste 35 Sudeste 0 -- -- 68
2020-10-13 17:00:00 20.7 23 Sur 29 Sur 0 -- -- 72
2020-10-13 16:00:00 20.3 24 Sur 28 Sur 0 -- -- 74
2020-10-13 15:00:00 20 23 Sudeste 26 Sur 0 -- -- 78
2020-10-13 14:00:00 19.5 23 Sudeste 26 Sudeste 0 -- -- 77
2020-10-13 13:00:00 19.3 14 Sudeste 17 Sudeste 0 -- -- 67
2020-10-13 12:00:00 18.8 12 Sudeste 14 Sudeste 0 -- -- 67
2020-10-13 11:00:00 -- -- -- -- -- -- -- -- --
2020-10-13 10:00:00 -- -- -- -- -- -- -- -- --
2020-10-13 09:00:00 14.5 17 Oeste 21 Oeste 0 -- -- 47
2020-10-13 08:00:00 13.1 15 Oeste 22 Oeste 0 -- -- 56
2020-10-13 07:00:00 13.4 14 Oeste 20 Oeste 0 -- -- 52
2020-10-13 06:00:00 12.3 9 Noroeste 21 Oeste 0 -- -- 65
2020-10-13 05:00:00 13 5 Oeste 19 Oeste 0 -- -- 64
2020-10-13 04:00:00 -- -- -- -- -- -- -- -- --
2020-10-13 03:00:00 14.4 13 Oeste 17 Oeste 0 -- -- 57
2020-10-13 02:00:00 14.6 10 Oeste 15 Oeste 0 -- -- 61
2020-10-13 01:00:00 -- -- -- -- -- -- -- -- --
2020-10-13 00:00:00 14.4 13 Oeste 20 Oeste 0 -- -- 61
2020-10-12 23:00:00 16.2 10 Oeste 16 Oeste 0 -- -- 62
2020-10-12 22:00:00 16.4 6 Oeste 9 Oeste 0 -- -- 63
2020-10-12 21:00:00 17.6 5 Sur 16 Sudeste 0 -- -- 62
2020-10-12 20:00:00 18.4 13 Sudeste 19 Sudeste 0 -- -- 63
2020-10-12 19:00:00 18.8 15 Sudeste 20 Sudeste 0 -- -- 62
2020-10-12 18:00:00 -- -- -- -- -- -- -- -- --
2020-10-12 17:00:00 19 19 Sudeste 22 Sudeste 0 -- -- 57
2020-10-12 16:00:00 19.6 19 Sudeste 24 Este 0 -- -- 56
2020-10-12 15:00:00 19.5 19 Este 27 Nordeste 0 -- -- 50
2020-10-12 14:00:00 19.3 19 Este 28 Este 0 -- -- 55
2020-10-12 13:00:00 19.2 24 Este 29 Este 0 -- -- 54
2020-10-12 12:00:00 19.9 10 Este 15 Este 0 -- -- 43
2020-10-12 11:00:00 19.2 6 Noroeste 13 Noroeste 0 -- -- 37
2020-10-12 10:00:00 16.3 5 Noroeste 22 Oeste 0 -- -- 49
2020-10-12 09:00:00 14.3 14 Oeste 21 Oeste 0 -- -- 53
2020-10-12 08:00:00 13.6 16 Noroeste 21 Noroeste 0 -- -- 61
2020-10-12 07:00:00 13.7 11 Noroeste 16 Noroeste 0 -- -- 76
2020-10-12 06:00:00 14.6 14 Noroeste 18 Noroeste 0 -- -- 79
2020-10-12 05:00:00 15.1 9 Noroeste 16 Oeste 0 -- -- 74
2020-10-12 04:00:00 -- -- -- -- -- -- -- -- --
2020-10-12 03:00:00 16.3 12 Noroeste 18 Noroeste 0 -- -- 88
2020-10-12 02:00:00 16.5 10 Noroeste 14 Noroeste 0 -- -- 86
2020-10-12 01:00:00 17.9 8 Noroeste 14 Noroeste 0 -- -- 84
2020-10-12 00:00:00 17.8 5 Noroeste 11 Noroeste 0 -- -- 86
2020-10-11 23:00:00 18.4 4 Noroeste 6 Noroeste 0 -- -- 88
2020-10-11 22:00:00 19.3 2 Este 8 Sudeste 0 -- -- 88
2020-10-11 21:00:00 -- -- -- -- -- -- -- -- --
2020-10-11 20:00:00 -- -- -- -- -- -- -- -- --
2020-10-11 19:00:00 20 17 Este 20 Este 0 -- -- 84
2020-10-11 18:00:00 20.3 13 Este 14 Este 0 -- -- 81
2020-10-11 17:00:00 20.8 11 Sudeste 13 Sudeste 0 -- -- 75
2020-10-11 16:00:00 20.4 10 Este 26 Nordeste 0 -- -- 74
2020-10-11 15:00:00 20.4 22 Nordeste 27 Nordeste 0 -- -- 76
2020-10-11 14:00:00 20.7 18 Nordeste 22 Nordeste 0 -- -- 77
2020-10-11 13:00:00 20.8 13 Nordeste 23 Nordeste 0 -- -- 80
2020-10-11 12:00:00 20.4 14 Nordeste 26 Nordeste 0 -- -- 83
2020-10-11 11:00:00 22.3 3 Nordeste 5 Nordeste 0 -- -- 78
2020-10-11 10:00:00 22.5 0 Calma 7 Norte 0 -- -- 84
2020-10-11 09:00:00 20.4 4 Norte 6 Nordeste 0 -- -- 86
2020-10-11 08:00:00 19.8 3 Norte 7 Este 0 -- -- 84
2020-10-11 07:00:00 19.9 6 Oeste 11 Noroeste 0 -- -- 84
2020-10-11 06:00:00 19.2 9 Sudoeste 12 Sudoeste 0 -- -- 85
2020-10-11 05:00:00 19.2 4 Noroeste 6 Noroeste 0 -- -- 87
2020-10-11 04:00:00 18.7 4 Noroeste 10 Oeste 0 -- -- 89
2020-10-11 03:00:00 19.1 10 Oeste 14 Oeste 0 -- -- 89
2020-10-11 02:00:00 19.2 6 Oeste 12 Oeste 0 -- -- 90
2020-10-11 01:00:00 18.8 7 Oeste 10 Oeste 0 -- -- 89
2020-10-11 00:00:00 19.5 3 Noroeste 9 Sudoeste 0 -- -- 87
2020-10-10 23:00:00 19.5 4 Oeste 7 Oeste 0 -- -- 88
2020-10-10 22:00:00 19.6 3 Noroeste 8 Norte 0 -- -- 90
2020-10-10 21:00:00 19.8 2 Norte 8 Nordeste 0 -- -- 93
2020-10-10 20:00:00 20.5 8 Este 11 Este 0 -- -- 92
2020-10-10 19:00:00 20.9 9 Este 14 Este 0 -- -- 90
2020-10-10 18:00:00 21.6 12 Nordeste 17 Nordeste 0 -- -- 87
2020-10-10 17:00:00 21.3 14 Este 15 Este 0 -- -- 88
2020-10-10 16:00:00 21.3 12 Sudeste 14 Sudeste 0 -- -- 88
2020-10-10 15:00:00 21.9 13 Este 14 Este 0 -- -- 84
2020-10-10 14:00:00 23 9 Nordeste 15 Nordeste 0 -- -- 81
2020-10-10 13:00:00 23.1 9 Nordeste 12 Nordeste 0 -- -- 79
2020-10-10 12:00:00 22 3 Nordeste 7 Norte 0 -- -- 80
2020-10-10 11:00:00 20.4 4 Noroeste 10 Noroeste 0 -- -- 80
2020-10-10 10:00:00 18.4 8 Noroeste 14 Oeste 0 -- -- 85
2020-10-10 09:00:00 17.4 8 Noroeste 12 Oeste 0 -- -- 88
2020-10-10 08:00:00 17.5 8 Oeste 12 Oeste 0 -- -- 88
2020-10-10 07:00:00 17.7 4 Oeste 12 Oeste 0 -- -- 87
2020-10-10 06:00:00 17.7 8 Oeste 12 Oeste 0 -- -- 87
2020-10-10 05:00:00 17.7 9 Noroeste 12 Oeste 0 -- -- 87
2020-10-10 04:00:00 17.8 8 Oeste 13 Oeste 0 -- -- 88
2020-10-10 03:00:00 18 0 Calma 10 Oeste 0 -- -- 90
2020-10-10 02:00:00 18.2 4 Noroeste 9 Oeste 0 -- -- 93
2020-10-10 01:00:00 18.7 6 Oeste 9 Oeste 0 -- -- 95
2020-10-10 00:00:00 18.9 3 Noroeste 6 Noroeste 0 -- -- 95
2020-10-09 23:00:00 19.7 0 Calma 5 Sudoeste 0 -- -- 95
2020-10-09 22:00:00 20 0 Calma 2 Noroeste 0 -- -- 95
2020-10-09 21:00:00 20.2 0 Calma 4 Nordeste 0 -- -- 94
2020-10-09 20:00:00 20.4 4 Nordeste 12 Este 0 -- -- 94
2020-10-09 19:00:00 20.8 10 Este 14 Este 0 -- -- 93
2020-10-09 18:00:00 21 11 Este 16 Este 0 -- -- 91
2020-10-09 17:00:00 21.4 14 Este 16 Este 0 -- -- 89
2020-10-09 16:00:00 21 15 Este 17 Este 0 -- -- 89
2020-10-09 15:00:00 21.4 13 Este 14 Este 0 -- -- 87
2020-10-09 14:00:00 21.4 11 Este 13 Este 0 -- -- 83
2020-10-09 13:00:00 21.4 9 Sudeste 10 Sudeste 0 -- -- 83
2020-10-09 12:00:00 22 9 Sudeste 10 Sudeste 0 -- -- 77
2020-10-09 11:00:00 22 5 Nordeste 13 Norte 0 -- -- 76
2020-10-09 10:00:00 19.8 8 Noroeste 15 Noroeste 0 -- -- 83
2020-10-09 09:00:00 17.6 10 Noroeste 13 Oeste 0 -- -- 85
2020-10-09 08:00:00 17.1 7 Noroeste 13 Noroeste 0 -- -- 88
2020-10-09 07:00:00 17 9 Noroeste 14 Oeste 0 -- -- 89
2020-10-09 06:00:00 17.8 13 Oeste 15 Oeste 0 -- -- 91
2020-10-09 05:00:00 18.4 9 Noroeste 17 Noroeste 0 -- -- 91
2020-10-09 04:00:00 18.5 11 Noroeste 15 Noroeste 0 -- -- 92
2020-10-09 03:00:00 18.6 8 Noroeste 14 Oeste 0 -- -- 93
2020-10-09 02:00:00 19.3 10 Noroeste 14 Norte 0 -- -- 92
2020-10-09 01:00:00 20 5 Oeste 6 Oeste 0 -- -- 90
2020-10-09 00:00:00 20.6 3 Noroeste 8 Oeste 0 -- -- 92
2020-10-08 23:00:00 20.7 4 Noroeste 6 Noroeste 0 -- -- 92
2020-10-08 22:00:00 20.9 4 Norte 9 Norte 0 -- -- 91
2020-10-08 21:00:00 21.2 4 Norte 10 Norte 0 -- -- 90
2020-10-08 20:00:00 21.4 6 Norte 10 Norte 0 -- -- 88
2020-10-08 19:00:00 22.2 6 Norte 12 Norte 0 -- -- 86
2020-10-08 18:00:00 22.4 5 Norte 18 Nordeste 0 -- -- 84
2020-10-08 17:00:00 22.9 6 Nordeste 10 Este 0 -- -- 82
2020-10-08 16:00:00 23.3 3 Este 13 Nordeste 0 -- -- 79
2020-10-08 15:00:00 22.5 13 Nordeste 17 Nordeste 0 -- -- 78
2020-10-08 14:00:00 22.5 18 Nordeste 22 Nordeste 0 -- -- 76
2020-10-08 13:00:00 24.2 3 Nordeste 14 Nordeste 0 -- -- 62
2020-10-08 12:00:00 23.7 8 Nordeste 14 Noroeste 0 -- -- 59
2020-10-08 11:00:00 22.7 10 Noroeste 17 Oeste 0 -- -- 52
2020-10-08 10:00:00 19.5 14 Noroeste 20 Noroeste 0 -- -- 59
2020-10-08 09:00:00 17.7 15 Noroeste 20 Oeste 0 -- -- 64
2020-10-08 08:00:00 17 10 Noroeste 17 Oeste 0 -- -- 67
2020-10-08 07:00:00 17.6 5 Oeste 13 Oeste 0 -- -- 67
2020-10-08 06:00:00 17.9 9 Noroeste 17 Noroeste 0 -- -- 66
2020-10-08 05:00:00 18.8 13 Oeste 21 Oeste 0 -- -- 60
2020-10-08 04:00:00 19.1 14 Oeste 18 Oeste 0 -- -- 60
2020-10-08 03:00:00 18.9 12 Noroeste 17 Oeste 0 -- -- 63
2020-10-08 02:00:00 18.8 7 Noroeste 10 Noroeste 0 -- -- 65
2020-10-08 01:00:00 19.3 5 Noroeste 8 Noroeste 0 -- -- 70
2020-10-08 00:00:00 19.6 7 Norte 12 Oeste 0 -- -- 64
2020-10-07 23:00:00 19.4 4 Norte 8 Nordeste 0 -- -- 77
2020-10-07 22:00:00 20.2 2 Noroeste 6 Nordeste 0 -- -- 83
2020-10-07 21:00:00 20.3 5 Norte 12 Nordeste 0 -- -- 84
2020-10-07 20:00:00 21 9 Nordeste 17 Sur 0 -- -- 78
2020-10-07 19:00:00 20.6 17 Sur 24 Sudeste 0 -- -- 77
2020-10-07 18:00:00 20.6 22 Sudeste 29 Sur 0 -- -- 77
2020-10-07 17:00:00 20.6 27 Sur 29 Sur 0 -- -- 74
2020-10-07 16:00:00 20.3 28 Sur 32 Sur 0 -- -- 77
2020-10-07 15:00:00 19.8 26 Sudeste 29 Sur 0 -- -- 81
2020-10-07 14:00:00 19.9 24 Sur 27 Sur 0 -- -- 83
2020-10-07 13:00:00 20 21 Sur 24 Sur 0 -- -- 77
2020-10-07 12:00:00 20.8 15 Sur 17 Sur 0 -- -- 65
2020-10-07 11:00:00 24.1 3 Noroeste 11 Oeste 0 -- -- 44
2020-10-07 10:00:00 21 5 Oeste 15 Oeste 0 -- -- 51
2020-10-07 09:00:00 18.7 10 Oeste 14 Noroeste 0 -- -- 57
2020-10-07 08:00:00 18.4 5 Oeste 14 Oeste 0 -- -- 58
2020-10-07 07:00:00 18 6 Oeste 13 Oeste 0 -- -- 59
2020-10-07 06:00:00 17.7 6 Oeste 12 Oeste 0 -- -- 58
2020-10-07 05:00:00 17.9 4 Sur 10 Noroeste 0 -- -- 63
2020-10-07 04:00:00 18.4 5 Oeste 15 Oeste 0 -- -- 56
2020-10-07 03:00:00 19.1 12 Oeste 18 Oeste 0 -- -- 58
2020-10-07 02:00:00 17.7 13 Oeste 17 Oeste 0 -- -- 64
2020-10-07 01:00:00 17.6 9 Oeste 12 Oeste 0 -- -- 72
2020-10-07 00:00:00 17.9 3 Oeste 10 Noroeste 0 -- -- 80
2020-10-06 23:00:00 18.1 2 Oeste 15 Norte 0 -- -- 86
2020-10-06 22:00:00 19.1 9 Norte 26 Norte 0 -- -- 85
2020-10-06 21:00:00 19.7 4 Norte 12 Sur 0 -- -- 75
2020-10-06 20:00:00 19.8 14 Sur 37 Sur 0 -- -- 77
2020-10-06 19:00:00 19.4 30 Sur 45 Sur 0 -- -- 79
2020-10-06 18:00:00 19.1 35 Sur 43 Sudeste 0 -- -- 86
2020-10-06 17:00:00 19.1 36 Sur 41 Sur 0 -- -- 88
2020-10-06 16:00:00 19.3 32 Sudeste 38 Sudeste 0 -- -- 87
2020-10-06 15:00:00 19.1 24 Sudeste 28 Sur 0 -- -- 84
2020-10-06 14:00:00 19 21 Sudeste 24 Sudeste 0 -- -- 82
2020-10-06 13:00:00 19.7 17 Sudeste 19 Sudeste 0 -- -- 79
2020-10-06 12:00:00 19.7 5 Sudeste 12 Sudeste 0 -- -- 74
2020-10-06 11:00:00 19.3 9 Sudeste 12 Sudeste 0 -- -- 65
2020-10-06 10:00:00 18 4 Noroeste 14 Oeste 0 -- -- 55
2020-10-06 09:00:00 15.3 12 Noroeste 16 Oeste 0 -- -- 60
2020-10-06 08:00:00 14.3 12 Noroeste 18 Oeste 0 -- -- 66
2020-10-06 07:00:00 15.4 15 Oeste 21 Oeste 0 -- -- 61
2020-10-06 06:00:00 15.5 13 Oeste 17 Oeste 0 -- -- 62
2020-10-06 05:00:00 16.2 11 Oeste 17 Oeste 0 -- -- 64
2020-10-06 04:00:00 16.8 18 Oeste 27 Oeste 0 -- -- 67
2020-10-06 03:00:00 16.6 12 Oeste 20 Oeste 0 -- -- 66
2020-10-06 02:00:00 17.3 5 Oeste 18 Oeste 0 -- -- 64
2020-10-06 01:00:00 17.6 12 Oeste 15 Oeste 0 -- -- 64
2020-10-06 00:00:00 18.5 12 Noroeste 17 Oeste 0 -- -- 61
2020-10-05 23:00:00 18.7 13 Oeste 17 Oeste 0 -- -- 64
2020-10-05 22:00:00 19.3 10 Sudoeste 20 Sur 0 -- -- 67
2020-10-05 21:00:00 19.3 21 Sur 26 Sudeste 0 -- -- 73
2020-10-05 20:00:00 19.2 23 Sudeste 33 Sudeste 0 -- -- 77
2020-10-05 19:00:00 19.3 30 Sudeste 36 Sudeste 0 -- -- 77
2020-10-05 18:00:00 19.3 32 Sudeste 39 Sudeste 0 -- -- 79
2020-10-05 17:00:00 19.4 35 Sudeste 44 Sur 0 -- -- 78
2020-10-05 16:00:00 19.4 35 Sur 40 Sur 0 -- -- 77
2020-10-05 15:00:00 19 33 Sur 36 Sur 0 -- -- 77
2020-10-05 14:00:00 19.4 27 Sur 30 Sudeste 0 -- -- 79
2020-10-05 13:00:00 20.8 22 Este 25 Este 0 -- -- 72
2020-10-05 12:00:00 23.2 9 Nordeste 24 Norte 0 -- -- 56
2020-10-05 11:00:00 22 13 Norte 24 Noroeste 0 -- -- 49
2020-10-05 10:00:00 20.8 16 Noroeste 33 Noroeste 0 -- -- 51
2020-10-05 09:00:00 19.3 10 Noroeste 21 Noroeste 0 -- -- 57
2020-10-05 08:00:00 19.5 12 Norte 28 Noroeste 0 -- -- 58
2020-10-05 07:00:00 19.4 16 Noroeste 30 Noroeste 0 -- -- 61
2020-10-05 06:00:00 17.5 4 Noroeste 15 Sudeste 0 -- -- 78
2020-10-05 05:00:00 17.5 5 Este 15 Sur 0 -- -- 84
2020-10-05 04:00:00 17.6 9 Sur 22 Sur 0 -- -- 85
2020-10-05 03:00:00 17.6 16 Sur 20 Sur 0 -- -- 89
2020-10-05 02:00:00 18.1 9 Sudeste 14 Sur 0 -- -- 86
2020-10-05 01:00:00 18.4 10 Sur 15 Noroeste 0 -- -- 73
2020-10-05 00:00:00 18.5 5 Sur 18 Sur 0 -- -- 82
2020-10-04 23:00:00 22.6 5 Sudoeste 13 Sur 0 -- -- 44
2020-10-04 22:00:00 22.4 7 Oeste 26 Noroeste 0 -- -- 46
2020-10-04 21:00:00 23.4 14 Noroeste 27 Noroeste 0 -- -- 42
2020-10-04 20:00:00 23.1 12 Noroeste 22 Noroeste 0 -- -- 55
2020-10-04 19:00:00 23.7 14 Sudoeste 35 Sur 0 -- -- 45
2020-10-04 18:00:00 20.1 27 Sur 36 Sudeste 0 -- -- 68
2020-10-04 17:00:00 21 29 Sudeste 45 Sudeste 0 -- -- 60
2020-10-04 16:00:00 20.2 36 Sudeste 45 Sur 0 -- -- 64
2020-10-04 15:00:00 19 38 Sur 46 Sur 0 -- -- 72
2020-10-04 14:00:00 18.6 31 Sudeste 38 Sudeste 0 -- -- 73
2020-10-04 13:00:00 17.7 23 Sur 35 Sur 0 -- -- 79
2020-10-04 12:00:00 17.8 21 Sudeste 24 Sudeste 0 -- -- 74
2020-10-04 11:00:00 19.1 15 Sudeste 21 Sudoeste 0 -- -- 64
2020-10-04 10:00:00 18.4 11 Sudoeste 17 Sudoeste 0 -- -- 42
2020-10-04 09:00:00 15 15 Oeste 25 Sudoeste 0 -- -- 47
2020-10-04 08:00:00 13.6 14 Oeste 22 Sudoeste 0 -- -- 50
2020-10-04 07:00:00 14 12 Oeste 16 Oeste 0 -- -- 51
2020-10-04 06:00:00 14.1 13 Oeste 19 Oeste 0 -- -- 53
2020-10-04 05:00:00 15 13 Oeste 17 Sudoeste 0 -- -- 50
2020-10-04 04:00:00 16.4 7 Oeste 14 Oeste 0 -- -- 50
2020-10-04 03:00:00 15.4 6 Noroeste 14 Oeste 0 -- -- 53
2020-10-04 02:00:00 15.5 11 Sudoeste 17 Oeste 0 -- -- 53
2020-10-04 01:00:00 17.8 11 Oeste 19 Oeste 0 -- -- 45
2020-10-04 00:00:00 18.5 11 Oeste 21 Oeste 0 -- -- 44
2020-10-03 23:00:00 18.7 10 Noroeste 19 Oeste 0 -- -- 45
2020-10-03 22:00:00 19.4 11 Oeste 19 Noroeste 0 -- -- 44
2020-10-03 21:00:00 20 6 Norte 13 Sur 0 -- -- 45
2020-10-03 20:00:00 19.1 17 Sur 32 Sur 0 -- -- 75
2020-10-03 19:00:00 18.1 29 Sur 41 Sur 0 -- -- 69
2020-10-03 18:00:00 17.8 36 Sur 42 Sur 0 -- -- 79
2020-10-03 17:00:00 18.2 30 Sudeste 35 Sur 0 -- -- 76
2020-10-03 16:00:00 18.4 27 Sudeste 38 Sudeste 0 -- -- 72
2020-10-03 15:00:00 18.4 28 Sudeste 52 Sur 0 -- -- 71
2020-10-03 14:00:00 18.2 24 Sur 37 Sudeste 0 -- -- 68
2020-10-03 13:00:00 19.8 13 Sur 36 Oeste 0 -- -- 61
2020-10-03 12:00:00 19.5 24 Noroeste 45 Noroeste 0 -- -- 38
2020-10-03 11:00:00 18.6 20 Oeste 51 Oeste 0 -- -- 40
2020-10-03 10:00:00 17.9 32 Noroeste 59 Noroeste 0 -- -- 42
2020-10-03 09:00:00 17.1 31 Oeste 55 Oeste 0 -- -- 44
2020-10-03 08:00:00 16.8 39 Oeste 60 Oeste 0 -- -- 45
2020-10-03 07:00:00 17.2 32 Oeste 64 Oeste 0 -- -- 47
2020-10-03 06:00:00 17.4 11 Norte 22 Noroeste 0 -- -- 46
2020-10-03 05:00:00 17.8 10 Oeste 40 Oeste 0 -- -- 45
2020-10-03 04:00:00 18 19 Noroeste 37 Noroeste 0 -- -- 45
2020-10-03 03:00:00 18.7 14 Oeste 38 Oeste 0 -- -- 44
2020-10-03 02:00:00 19.2 23 Oeste 49 Oeste 0 -- -- 42
2020-10-03 01:00:00 19.7 27 Noroeste 50 Noroeste 0 -- -- 42
2020-10-03 00:00:00 20 36 Noroeste 58 Noroeste 0 -- -- 46
2020-10-02 23:00:00 19.9 31 Noroeste 55 Noroeste 0 -- -- 51
2020-10-02 22:00:00 20.5 35 Noroeste 59 Noroeste 0 -- -- 60
2020-10-02 21:00:00 20.6 24 Noroeste 57 Noroeste 0 -- -- 60
2020-10-02 20:00:00 22.5 33 Noroeste 57 Noroeste 0 -- -- 61
2020-10-02 19:00:00 27 21 Oeste 46 Sur 0 -- -- 49
2020-10-02 18:00:00 28.2 35 Sudoeste 60 Sudoeste 0 -- -- 43
2020-10-02 17:00:00 27.8 26 Sudoeste 40 Sudoeste 0 -- -- 43
2020-10-02 16:00:00 28.3 17 Oeste 35 Sudeste 0 -- -- 40
2020-10-02 15:00:00 27.3 10 Noroeste 49 Este 0 -- -- 47
2020-10-02 14:00:00 23 28 Sudeste 35 Sudeste 0 -- -- 64
2020-10-02 13:00:00 23.2 15 Este 25 Sudeste 0 -- -- 66
2020-10-02 12:00:00 22 14 Sur 18 Sur 0 -- -- 72
2020-10-02 11:00:00 21.4 4 Sudoeste 15 Sur 0 -- -- 61
2020-10-02 10:00:00 21.8 3 Noroeste 12 Sudoeste 0 -- -- 57
2020-10-02 09:00:00 21.3 2 Norte 5 Sur 0 -- -- 60
2020-10-02 08:00:00 21.1 5 Noroeste 10 Sur 0 -- -- 61
2020-10-02 07:00:00 22 6 Sudoeste 17 Oeste 0 -- -- 59
2020-10-02 06:00:00 22.9 8 Oeste 25 Sudoeste 0 -- -- 50
2020-10-02 05:00:00 23.8 21 Sudoeste 28 Sudoeste 0 -- -- 46
2020-10-02 04:00:00 23.5 21 Sudoeste 25 Sudoeste 0 -- -- 45
2020-10-02 03:00:00 25 19 Sudoeste 24 Sudoeste 0 -- -- 39
2020-10-02 02:00:00 23.7 10 Oeste 17 Sudoeste 0 -- -- 42
2020-10-02 01:00:00 25.5 11 Oeste 28 Oeste 0 -- -- 37
2020-10-02 00:00:00 24.5 11 Oeste 17 Sudoeste 0 -- -- 49
2020-10-01 23:00:00 24 9 Noroeste 17 Noroeste 0 -- -- 64
2020-10-01 22:00:00 24.1 10 Noroeste 19 Oeste 0 -- -- 62
2020-10-01 21:00:00 23.9 7 Sudeste 22 Sudoeste 0 -- -- 77
2020-10-01 20:00:00 27.3 15 Oeste 25 Sudoeste 0 -- -- 49
2020-10-01 19:00:00 27.7 3 Sudeste 29 Sur 0 -- -- 46
2020-10-01 18:00:00 25.5 22 Sur 42 Sudeste 0 -- -- 65
2020-10-01 17:00:00 23.5 38 Sudeste 48 Sur 0 -- -- 81
2020-10-01 16:00:00 22.7 38 Sur 45 Sur 0 -- -- 88
2020-10-01 15:00:00 22.8 37 Sur 41 Sur 0 -- -- 87
2020-10-01 14:00:00 22.6 33 Sur 37 Sur 0 -- -- 89
2020-10-01 13:00:00 22.7 22 Sudeste 27 Sudeste 0 -- -- 87
2020-10-01 12:00:00 21.9 10 Sudeste 12 Sudeste 0 -- -- 86
2020-10-01 11:00:00 21.9 8 Sudeste 15 Sur 0 -- -- 86
2020-10-01 10:00:00 20.5 7 Sur 10 Sur 0 -- -- 81
2020-10-01 09:00:00 18.3 4 Noroeste 8 Noroeste 0 -- -- 87
2020-10-01 08:00:00 17.8 6 Noroeste 13 Noroeste 0 -- -- 89
2020-10-01 07:00:00 18.1 5 Noroeste 8 Noroeste 0 -- -- 88
2020-10-01 06:00:00 18.5 3 Noroeste 12 Oeste 0 -- -- 89
2020-10-01 05:00:00 19 10 Oeste 13 Oeste 0 -- -- 90
2020-10-01 04:00:00 19.1 7 Oeste 10 Noroeste 0 -- -- 89
2020-10-01 03:00:00 19.8 3 Noroeste 11 Noroeste 0 -- -- 89
2020-10-01 02:00:00 19.8 6 Noroeste 10 Sudoeste 0 -- -- 89
2020-10-01 01:00:00 19.4 10 Oeste 15 Noroeste 0 -- -- 90
2020-10-01 00:00:00 20.7 3 Noroeste 7 Oeste 0 -- -- 89